Time;durP1;ratioP1;P1;durP2;ratioP2;P2;SDS_P1;SDS_P2;PMS_P1;PMS_P2;Temp;Humidity;BMP_temperature;BMP_pressure;BME280_temperature;BME280_humidity;BME280_pressure;Samples;Min_cycle;Max_cycle;Signal;HPM_P1;HPM_P2
2021/06/22 00:01:26;;;;;;;10.70;6.30;;;13.10;99.90;;;;;;4970277;28;20692;-60
2021/06/22 00:03:53;;;;;;;10.20;5.80;;;13.00;99.90;;;;;;4970462;28;20210;-62
2021/06/22 00:06:19;;;;;;;5.93;5.20;;;13.00;99.90;;;;;;4970359;28;20208;-63
2021/06/22 00:08:46;;;;;;;6.73;4.87;;;13.00;1.00;;;;;;4970445;28;20231;-62
2021/06/22 00:11:13;;;;;;;10.10;5.20;;;13.00;99.90;;;;;;4970545;28;20205;-63
2021/06/22 00:13:39;;;;;;;9.67;5.10;;;13.00;99.90;;;;;;4970454;28;20215;-63
2021/06/22 00:16:06;;;;;;;8.97;5.30;;;12.90;99.90;;;;;;4970378;28;20205;-63
2021/06/22 00:18:34;;;;;;;8.73;4.93;;;12.90;99.90;;;;;;4970071;28;20231;-61
2021/06/22 00:21:01;;;;;;;7.20;3.97;;;12.90;23.20;;;;;;4970157;28;20966;-63
2021/06/22 00:23:28;;;;;;;5.30;4.30;;;12.90;1.00;;;;;;4973627;28;20214;-63
2021/06/22 00:25:56;;;;;;;8.83;4.63;;;12.80;1.00;;;;;;4973891;28;20210;-63
2021/06/22 00:28:22;;;;;;;10.43;5.13;;;12.80;1.00;;;;;;4973785;28;20271;-63
2021/06/22 00:30:49;;;;;;;6.40;4.47;;;12.70;1.00;;;;;;4973506;28;20210;-62
2021/06/22 00:33:16;;;;;;;5.30;4.13;;;12.70;6.20;;;;;;4973433;28;20259;-61
2021/06/22 00:35:44;;;;;;;7.63;4.07;;;12.70;99.90;;;;;;4973702;28;20209;-63
2021/06/22 00:38:10;;;;;;;7.60;4.47;;;12.70;1.00;;;;;;4973611;28;20324;-63
2021/06/22 00:40:37;;;;;;;10.53;4.60;;;12.70;1.00;;;;;;4973283;28;20235;-62
2021/06/22 00:43:05;;;;;;;10.00;3.53;;;12.70;1.00;;;;;;4973626;28;20214;-61
2021/06/22 00:45:33;;;;;;;7.87;3.77;;;12.70;1.00;;;;;;4973466;28;20679;-62
2021/06/22 00:48:00;;;;;;;5.37;4.20;;;12.70;1.00;;;;;;4973061;28;20230;-61
2021/06/22 00:50:29;;;;;;;8.10;4.00;;;12.70;1.00;;;;;;4973637;28;20206;-62
2021/06/22 00:52:57;;;;;;;7.97;3.80;;;12.70;1.00;;;;;;4973236;28;20217;-61
2021/06/22 00:55:30;;;;;;;6.60;3.53;;;12.70;1.00;;;;;;4973603;28;20214;-61
2021/06/22 00:58:01;;;;;;;4.87;3.20;;;12.70;1.00;;;;;;4973069;28;20225;-62
2021/06/22 01:00:30;;;;;;;8.13;3.80;;;12.80;1.00;;;;;;4972694;28;20303;-64
2021/06/22 01:02:57;;;;;;;5.30;3.57;;;12.80;1.00;;;;;;4973336;28;20208;-62
2021/06/22 01:05:24;;;;;;;7.87;3.83;;;12.80;1.00;;;;;;4973701;28;20213;-63
2021/06/22 01:07:54;;;;;;;7.73;3.90;;;12.80;1.00;;;;;;4973195;28;20227;-59
2021/06/22 01:10:22;;;;;;;6.57;3.60;;;12.80;1.00;;;;;;4973110;28;20577;-63
2021/06/22 01:12:49;;;;;;;7.43;3.93;;;12.80;1.00;;;;;;4972892;28;20280;-58
2021/06/22 01:15:18;;;;;;;7.20;4.30;;;12.80;1.00;;;;;;4972974;28;20674;-63
2021/06/22 01:17:45;;;;;;;8.67;5.03;;;12.80;1.00;;;;;;4973097;28;20235;-60
2021/06/22 01:20:14;;;;;;;9.10;4.60;;;12.80;19.50;;;;;;4972733;28;20226;-63
2021/06/22 01:22:46;;;;;;;6.33;4.27;;;12.80;99.90;;;;;;4973110;28;20236;-57
2021/06/22 01:25:14;;;;;;;6.53;4.30;;;12.80;1.00;;;;;;4972924;28;20223;-61
2021/06/22 01:27:41;;;;;;;9.77;4.60;;;12.80;88.20;;;;;;4972594;28;20249;-60
2021/06/22 01:30:09;;;;;;;9.03;4.50;;;12.70;20.90;;;;;;4972923;28;20552;-60
2021/06/22 01:32:36;;;;;;;9.53;4.70;;;12.70;28.50;;;;;;4972894;28;20212;-60
2021/06/22 01:35:04;;;;;;;7.77;4.33;;;12.70;99.90;;;;;;4972859;28;20288;-60
2021/06/22 01:37:30;;;;;;;7.73;4.27;;;12.70;90.30;;;;;;4972862;28;20230;-63
2021/06/22 01:40:04;;;;;;;8.03;4.57;;;12.70;74.90;;;;;;4972611;28;20235;-63
2021/06/22 01:42:30;;;;;;;9.77;4.10;;;12.70;18.70;;;;;;4973126;28;20579;-63
2021/06/22 01:44:57;;;;;;;6.90;4.17;;;12.70;99.90;;;;;;4973506;28;20208;-62
2021/06/22 01:47:24;;;;;;;7.17;4.43;;;12.70;19.90;;;;;;4973332;28;20313;-64
2021/06/22 01:49:58;;;;;;;9.27;4.50;;;12.70;99.90;;;;;;4972683;28;20215;-63
2021/06/22 01:52:24;;;;;;;8.07;4.80;;;12.60;99.90;;;;;;4972587;28;20209;-64
2021/06/22 01:54:54;;;;;;;7.63;4.23;;;12.60;99.90;;;;;;4973055;28;20219;-62
2021/06/22 01:57:22;;;;;;;10.10;4.97;;;12.60;99.90;;;;;;4972536;28;20231;-60
2021/06/22 01:59:49;;;;;;;8.43;5.10;;;12.50;99.90;;;;;;4972436;28;20639;-59
2021/06/22 02:02:15;;;;;;;7.40;4.17;;;12.60;99.90;;;;;;4972105;28;20219;-56
2021/06/22 02:04:42;;;;;;;6.67;3.63;;;12.60;1.00;;;;;;4972297;28;20212;-53
2021/06/22 02:07:09;;;;;;;8.13;3.77;;;12.50;1.00;;;;;;4971834;28;20216;-63
2021/06/22 02:09:35;;;;;;;6.67;3.43;;;12.50;1.00;;;;;;4972396;28;20231;-60
2021/06/22 02:12:02;;;;;;;6.30;3.33;;;12.50;1.00;;;;;;4972233;28;20220;-60
2021/06/22 02:14:30;;;;;;;6.43;3.30;;;12.50;1.00;;;;;;4972235;28;20215;-63
2021/06/22 02:16:57;;;;;;;7.80;3.90;;;12.50;1.00;;;;;;4972238;28;20204;-63
2021/06/22 02:19:24;;;;;;;5.93;3.97;;;12.50;1.00;;;;;;4971891;28;20223;-58
2021/06/22 02:21:50;;;;;;;11.97;4.60;;;12.40;99.90;;;;;;4972187;28;20229;-60
2021/06/22 02:24:17;;;;;;;6.17;4.50;;;12.40;99.90;;;;;;4971703;28;20212;-60
2021/06/22 02:26:44;;;;;;;10.17;5.00;;;12.40;1.00;;;;;;4972012;28;20215;-59
2021/06/22 02:29:10;;;;;;;11.53;5.50;;;12.40;1.00;;;;;;4971938;28;20242;-60
2021/06/22 02:31:39;;;;;;;9.17;5.17;;;12.40;99.90;;;;;;4971559;28;20669;-63
2021/06/22 02:34:05;;;;;;;10.20;4.70;;;12.40;99.90;;;;;;4971561;28;20211;-62
2021/06/22 02:36:32;;;;;;;11.67;5.80;;;12.40;1.00;;;;;;4971681;28;20714;-62
2021/06/22 02:38:58;;;;;;;12.60;5.60;;;12.40;1.00;;;;;;4971817;28;20255;-60
2021/06/22 02:41:25;;;;;;;10.03;5.17;;;12.50;1.00;;;;;;4971517;28;20232;-63
2021/06/22 02:43:52;;;;;;;8.93;5.10;;;12.40;99.90;;;;;;4971771;28;20417;-63
2021/06/22 02:46:18;;;;;;;9.60;5.07;;;12.40;1.00;;;;;;4970935;28;20204;-60
2021/06/22 02:48:46;;;;;;;9.53;5.40;;;12.40;99.90;;;;;;4971388;28;20225;-56
2021/06/22 02:51:13;;;;;;;11.37;5.20;;;12.40;1.00;;;;;;4971362;28;20213;-60
2021/06/22 02:53:40;;;;;;;9.27;5.60;;;12.40;1.00;;;;;;4971741;28;20213;-62
2021/06/22 02:56:07;;;;;;;9.77;5.43;;;12.30;99.90;;;;;;4970935;28;20208;-60
2021/06/22 02:58:33;;;;;;;14.93;6.07;;;12.30;99.90;;;;;;4971394;28;20226;-62
2021/06/22 03:01:00;;;;;;;14.87;6.17;;;12.30;99.90;;;;;;4971081;28;20227;-63
2021/06/22 03:03:27;;;;;;;11.93;6.13;;;12.30;1.00;;;;;;4971279;28;20813;-60
2021/06/22 03:05:55;;;;;;;11.33;6.57;;;12.20;1.00;;;;;;4971558;28;20564;-63
2021/06/22 03:08:22;;;;;;;14.20;6.77;;;12.20;13.90;;;;;;4971220;28;20237;-62
2021/06/22 03:10:48;;;;;;;13.53;6.00;;;12.20;99.90;;;;;;4971226;28;20233;-63
2021/06/22 03:13:15;;;;;;;12.27;6.23;;;12.20;99.90;;;;;;4971119;28;20235;-62
2021/06/22 03:15:42;;;;;;;10.00;6.10;;;12.20;99.90;;;;;;4970987;28;20215;-62
2021/06/22 03:18:09;;;;;;;14.33;6.83;;;12.20;99.90;;;;;;4971539;28;20594;-62
2021/06/22 03:20:35;;;;;;;16.87;7.53;;;12.20;99.90;;;;;;4971202;28;20594;-62
2021/06/22 03:23:03;;;;;;;17.33;7.10;;;12.20;99.90;;;;;;4971320;28;20212;-60
2021/06/22 03:25:30;;;;;;;16.07;7.37;;;12.20;1.00;;;;;;4971052;28;20217;-62
2021/06/22 03:27:57;;;;;;;12.30;6.57;;;12.20;5.30;;;;;;4970756;28;20236;-63
2021/06/22 03:30:24;;;;;;;20.63;8.70;;;12.20;1.00;;;;;;4970472;28;20220;-63
2021/06/22 03:32:50;;;;;;;13.27;7.30;;;12.20;1.00;;;;;;4971217;28;20218;-63
2021/06/22 03:35:17;;;;;;;9.30;6.23;;;12.20;1.00;;;;;;4970994;28;20209;-63
2021/06/22 03:37:44;;;;;;;12.63;6.70;;;12.20;1.00;;;;;;4970805;28;20236;-63
2021/06/22 03:40:13;;;;;;;14.67;7.67;;;12.20;99.90;;;;;;4970901;28;20235;-62
2021/06/22 03:42:39;;;;;;;16.87;7.53;;;12.20;99.90;;;;;;4970868;28;20212;-62
2021/06/22 03:45:09;;;;;;;12.27;7.17;;;12.20;99.90;;;;;;4970763;28;20216;-60
2021/06/22 03:47:36;;;;;;;19.93;8.20;;;12.20;99.90;;;;;;4971125;28;20595;-63
2021/06/22 03:50:03;;;;;;;12.53;4.63;;;12.30;99.90;;;;;;4970510;28;20260;-62
2021/06/22 03:52:30;;;;;;;17.73;7.53;;;12.20;99.90;;;;;;4971083;28;20212;-63
2021/06/22 03:54:56;;;;;;;16.63;7.60;;;12.20;99.90;;;;;;4971019;28;20216;-62
2021/06/22 03:57:24;;;;;;;13.20;6.93;;;12.20;99.90;;;;;;4969807;28;20229;-58
2021/06/22 03:59:51;;;;;;;11.43;6.90;;;12.20;1.00;;;;;;4970803;28;20212;-59
2021/06/22 04:02:19;;;;;;;15.07;7.43;;;12.20;1.00;;;;;;4970639;28;20271;-60
2021/06/22 04:04:46;;;;;;;16.77;6.87;;;12.20;1.00;;;;;;4970800;28;20217;-63
2021/06/22 04:07:13;;;;;;;16.87;7.27;;;12.30;1.00;;;;;;4970486;28;20235;-62
2021/06/22 04:09:39;;;;;;;15.63;7.20;;;12.30;1.00;;;;;;4970625;28;20206;-59
2021/06/22 04:12:07;;;;;;;16.03;7.80;;;12.30;99.90;;;;;;4970177;28;20200;-63
2021/06/22 04:14:35;;;;;;;16.00;7.67;;;12.30;1.00;;;;;;4968404;28;20232;-64
2021/06/22 04:17:02;;;;;;;22.83;7.17;;;12.30;1.00;;;;;;4970296;28;20216;-63
2021/06/22 04:19:29;;;;;;;18.20;8.73;;;12.30;99.90;;;;;;4968515;28;20206;-64
2021/06/22 04:21:55;;;;;;;15.90;8.73;;;12.30;99.90;;;;;;4967429;28;20248;-64
2021/06/22 04:24:22;;;;;;;16.77;8.40;;;12.20;99.90;;;;;;4970112;28;20214;-64
2021/06/22 04:26:49;;;;;;;17.37;8.97;;;12.20;1.00;;;;;;4970105;28;20212;-64
2021/06/22 04:29:15;;;;;;;16.27;9.53;;;12.20;1.00;;;;;;4970178;28;20236;-64
2021/06/22 04:31:44;;;;;;;14.87;9.03;;;12.20;1.00;;;;;;4970071;28;20214;-64
2021/06/22 04:34:10;;;;;;;19.87;9.17;;;12.30;99.90;;;;;;4970133;28;20210;-67
2021/06/22 04:36:37;;;;;;;18.67;9.67;;;12.30;99.90;;;;;;4969674;28;20213;-64
2021/06/22 04:39:04;;;;;;;20.80;9.27;;;12.30;1.00;;;;;;4969745;28;20228;-64
2021/06/22 04:41:32;;;;;;;18.73;9.07;;;12.30;1.00;;;;;;4970023;28;20234;-64
2021/06/22 04:43:58;;;;;;;18.53;9.77;;;12.30;1.00;;;;;;4970068;28;20296;-64
2021/06/22 04:46:25;;;;;;;15.00;8.23;;;12.40;1.00;;;;;;4970009;28;20580;-64
2021/06/22 04:48:53;;;;;;;17.87;9.93;;;12.40;99.90;;;;;;4970105;28;20233;-64
2021/06/22 04:51:20;;;;;;;16.20;8.87;;;12.40;1.00;;;;;;4969643;28;20206;-65
2021/06/22 04:53:46;;;;;;;16.43;9.93;;;12.40;99.90;;;;;;4969875;28;20215;-64
2021/06/22 04:56:14;;;;;;;14.50;6.70;;;12.30;99.90;;;;;;4969649;28;20211;-64
2021/06/22 04:58:40;;;;;;;22.30;12.00;;;12.20;99.90;;;;;;4969868;28;20262;-63
2021/06/22 05:01:08;;;;;;;15.43;9.80;;;12.20;1.00;;;;;;4969328;28;20225;-64
2021/06/22 05:03:36;;;;;;;19.67;10.33;;;12.20;1.00;;;;;;4969731;28;20220;-63
2021/06/22 05:06:04;;;;;;;18.07;10.70;;;12.20;1.00;;;;;;4969564;28;20223;-63
2021/06/22 05:08:31;;;;;;;24.00;12.43;;;12.20;1.00;;;;;;4971193;28;20232;-63
2021/06/22 05:10:58;;;;;;;23.40;11.73;;;12.20;87.10;;;;;;4973078;28;20209;-64
2021/06/22 05:13:25;;;;;;;20.47;11.13;;;12.20;99.90;;;;;;4972911;28;20213;-63
2021/06/22 05:15:51;;;;;;;18.83;10.53;;;12.20;99.90;;;;;;4973047;28;20206;-62
2021/06/22 05:18:18;;;;;;;17.77;10.07;;;12.30;1.00;;;;;;4972842;28;20722;-64
2021/06/22 05:20:45;;;;;;;10.07;7.50;;;12.40;99.90;;;;;;4972511;28;20244;-64
2021/06/22 05:23:13;;;;;;;18.27;11.43;;;12.30;99.90;;;;;;4972321;28;20216;-65
2021/06/22 05:25:40;;;;;;;18.77;10.10;;;12.30;1.00;;;;;;4969218;28;20311;-61
2021/06/22 05:28:07;;;;;;;19.80;11.40;;;12.40;1.00;;;;;;4972212;28;20244;-63
2021/06/22 05:30:34;;;;;;;24.63;11.93;;;12.40;99.90;;;;;;4972295;28;20238;-63
2021/06/22 05:33:00;;;;;;;21.67;11.40;;;12.40;99.90;;;;;;4972516;28;20202;-63
2021/06/22 05:35:27;;;;;;;21.67;14.33;;;12.40;99.90;;;;;;4972098;28;20208;-63
2021/06/22 05:37:54;;;;;;;23.87;14.83;;;12.50;99.90;;;;;;4972392;28;20239;-65
2021/06/22 05:40:22;;;;;;;22.03;13.50;;;12.50;99.90;;;;;;4972164;28;20672;-64
2021/06/22 05:42:49;;;;;;;19.37;11.93;;;12.50;75.40;;;;;;4972324;28;20227;-63
2021/06/22 05:45:16;;;;;;;18.77;12.10;;;12.50;1.00;;;;;;4971966;28;20216;-65
2021/06/22 05:47:43;;;;;;;23.03;12.63;;;12.60;1.00;;;;;;4972350;28;20230;-63
2021/06/22 05:50:11;;;;;;;19.53;11.23;;;12.60;1.00;;;;;;4972518;28;20212;-62
2021/06/22 05:52:38;;;;;;;19.60;11.60;;;12.50;1.00;;;;;;4972415;28;20293;-63
2021/06/22 05:55:16;;;;;;;20.50;12.70;;;12.60;4.20;;;;;;4972102;28;20217;-62
2021/06/22 05:57:45;;;;;;;18.37;11.70;;;12.60;1.00;;;;;;4972504;28;20264;-63
2021/06/22 06:00:13;;;;;;;23.27;13.60;;;12.70;18.70;;;;;;4972223;28;20208;-65
2021/06/22 06:02:40;;;;;;;25.53;12.80;;;12.80;1.00;;;;;;4971771;28;20236;-64
2021/06/22 06:05:08;;;;;;;20.87;11.03;;;12.90;99.90;;;;;;4972285;28;20246;-65
2021/06/22 06:07:35;;;;;;;20.47;10.73;;;13.00;44.30;;;;;;4971523;28;20726;-64
2021/06/22 06:10:02;;;;;;;15.13;8.93;;;13.00;1.00;;;;;;4971839;28;20211;-65
2021/06/22 06:12:28;;;;;;;17.83;10.50;;;13.10;1.00;;;;;;4971741;28;20204;-65
2021/06/22 06:14:57;;;;;;;17.90;10.97;;;13.20;1.00;;;;;;4971611;28;20219;-65
2021/06/22 06:17:24;;;;;;;24.77;12.13;;;13.20;1.00;;;;;;4971605;28;20239;-65
2021/06/22 06:19:51;;;;;;;19.77;12.80;;;13.30;1.00;;;;;;4970641;28;20298;-65
2021/06/22 06:22:18;;;;;;;19.93;12.50;;;13.30;1.00;;;;;;4971560;28;20641;-65
2021/06/22 06:24:45;;;;;;;26.20;17.13;;;13.40;99.90;;;;;;4971405;28;20269;-64
2021/06/22 06:27:14;;;;;;;22.73;15.73;;;13.40;99.90;;;;;;4971410;28;20219;-66
2021/06/22 06:29:48;;;;;;;23.33;15.73;;;13.40;99.90;;;;;;4971121;28;20227;-63
2021/06/22 06:32:16;;;;;;;22.67;14.60;;;13.40;99.90;;;;;;4971738;28;20220;-63
2021/06/22 06:34:43;;;;;;;26.70;16.20;;;13.40;99.90;;;;;;4971672;28;20207;-63
2021/06/22 06:37:10;;;;;;;22.53;16.03;;;13.50;99.90;;;;;;4971273;28;20208;-63
2021/06/22 06:39:37;;;;;;;25.50;17.10;;;13.60;99.90;;;;;;4971260;28;20220;-65
2021/06/22 06:42:04;;;;;;;27.20;17.93;;;13.70;99.90;;;;;;4971109;28;20311;-63
2021/06/22 06:44:31;;;;;;;24.33;16.60;;;13.80;99.90;;;;;;4971236;28;20209;-63
2021/06/22 06:46:58;;;;;;;20.37;15.47;;;14.00;99.90;;;;;;4971195;28;20586;-63
2021/06/22 06:49:26;;;;;;;20.53;13.73;;;14.20;64.60;;;;;;4971324;28;20236;-64
2021/06/22 06:51:52;;;;;;;20.77;13.43;;;14.30;47.00;;;;;;4971245;28;20211;-61
2021/06/22 06:54:19;;;;;;;22.07;13.37;;;14.40;36.40;;;;;;4970012;28;20204;-61
2021/06/22 06:56:46;;;;;;;17.13;9.70;;;14.40;1.00;;;;;;4968682;28;20220;-64
2021/06/22 06:59:12;;;;;;;17.10;10.90;;;14.50;1.00;;;;;;4971405;28;20232;-63
2021/06/22 07:01:39;;;;;;;14.23;7.67;;;14.50;1.00;;;;;;4970748;28;20231;-62
2021/06/22 07:04:06;;;;;;;15.87;9.73;;;14.50;1.00;;;;;;4971308;28;20220;-64
2021/06/22 07:06:34;;;;;;;15.67;10.20;;;14.40;1.00;;;;;;4971026;28;20215;-63
2021/06/22 07:09:00;;;;;;;17.00;10.63;;;14.30;1.00;;;;;;4970907;28;20232;-63
2021/06/22 07:11:27;;;;;;;18.43;12.37;;;14.20;1.00;;;;;;4971087;28;20216;-62
2021/06/22 07:13:54;;;;;;;16.67;12.47;;;14.20;1.00;;;;;;4971240;28;20215;-65
2021/06/22 07:16:20;;;;;;;20.50;12.50;;;14.20;1.00;;;;;;4970650;28;20258;-65
2021/06/22 07:18:48;;;;;;;21.10;13.70;;;14.40;1.00;;;;;;4970911;28;20604;-64
2021/06/22 07:21:16;;;;;;;19.30;11.80;;;14.40;1.00;;;;;;4970352;28;20208;-63
2021/06/22 07:23:44;;;;;;;22.57;14.47;;;14.40;1.00;;;;;;4970892;28;20213;-63
2021/06/22 07:26:10;;;;;;;18.70;13.80;;;14.40;1.00;;;;;;4970468;28;20211;-64
2021/06/22 07:28:37;;;;;;;21.20;14.23;;;14.50;1.00;;;;;;4970413;28;20236;-62
2021/06/22 07:31:04;;;;;;;18.23;13.17;;;14.40;1.00;;;;;;4970265;28;20215;-63
2021/06/22 07:33:31;;;;;;;19.47;12.47;;;14.50;1.00;;;;;;4970546;28;20216;-63
2021/06/22 07:35:57;;;;;;;20.23;13.23;;;14.40;1.00;;;;;;4970295;28;20235;-64
2021/06/22 07:38:24;;;;;;;19.57;12.33;;;14.40;1.00;;;;;;4970119;28;20229;-62
2021/06/22 07:40:53;;;;;;;17.47;12.30;;;14.60;1.00;;;;;;4970530;28;20209;-62
2021/06/22 07:43:20;;;;;;;15.60;12.03;;;14.80;1.00;;;;;;4970379;28;20232;-61
2021/06/22 07:45:47;;;;;;;15.87;10.70;;;15.00;1.00;;;;;;4970077;28;20216;-63
2021/06/22 07:48:13;;;;;;;16.00;11.40;;;14.90;1.00;;;;;;4970288;28;20593;-62
2021/06/22 07:50:40;;;;;;;17.07;11.07;;;14.90;1.00;;;;;;4970140;28;20231;-56
2021/06/22 07:53:07;;;;;;;17.57;10.97;;;15.00;1.00;;;;;;4970623;28;20208;-56
2021/06/22 07:55:34;;;;;;;17.33;11.57;;;15.00;1.00;;;;;;4970092;28;20566;-64
2021/06/22 07:58:02;;;;;;;16.13;10.43;;;15.00;1.00;;;;;;4970199;28;20236;-63
2021/06/22 08:00:41;;;;;;;15.77;11.53;;;15.10;1.00;;;;;;4970034;28;20231;-64
2021/06/22 08:03:09;;;;;;;15.90;11.83;;;15.10;99.90;;;;;;4970116;28;20246;-65
2021/06/22 08:05:36;;;;;;;16.53;11.50;;;15.10;1.00;;;;;;4969982;28;20227;-67
2021/06/22 08:08:03;;;;;;;16.60;10.57;;;15.30;1.00;;;;;;4970131;28;20232;-64
2021/06/22 08:10:30;;;;;;;11.97;9.50;;;15.50;1.00;;;;;;4969354;28;20578;-65
2021/06/22 08:12:57;;;;;;;14.23;9.00;;;15.60;99.90;;;;;;4970063;28;20232;-63
2021/06/22 08:15:26;;;;;;;16.50;10.53;;;15.70;1.00;;;;;;4970336;28;20266;-64
2021/06/22 08:17:52;;;;;;;15.03;11.40;;;15.70;99.90;;;;;;4969648;28;20243;-65
2021/06/22 08:20:20;;;;;;;17.53;12.20;;;15.60;99.90;;;;;;4970300;28;20212;-63
2021/06/22 08:22:51;;;;;;;17.83;9.47;;;15.30;99.90;;;;;;4969651;28;20653;-65
2021/06/22 08:25:19;;;;;;;16.53;10.13;;;15.20;99.90;;;;;;4969959;28;20208;-64
2021/06/22 08:27:46;;;;;;;18.97;10.47;;;15.20;99.90;;;;;;4969590;28;20243;-65
2021/06/22 08:30:13;;;;;;;9.23;7.47;;;15.30;99.90;;;;;;4969620;28;20212;-65
2021/06/22 08:32:41;;;;;;;18.70;9.63;;;15.20;99.90;;;;;;4969950;28;20216;-64
2021/06/22 08:35:09;;;;;;;15.13;8.57;;;15.10;99.90;;;;;;4969502;28;20209;-65
2021/06/22 08:37:36;;;;;;;10.77;8.10;;;15.10;1.00;;;;;;4969792;28;20286;-66
2021/06/22 08:40:03;;;;;;;10.27;7.03;;;15.10;1.00;;;;;;4969602;28;20587;-65
2021/06/22 08:42:31;;;;;;;12.43;8.37;;;14.90;1.00;;;;;;4970068;28;20247;-66
2021/06/22 08:45:00;;;;;;;12.93;7.83;;;14.90;1.00;;;;;;4972559;28;20205;-66
2021/06/22 08:47:27;;;;;;;14.97;7.20;;;15.00;1.00;;;;;;4973173;28;20233;-66
2021/06/22 08:49:57;;;;;;;12.40;8.67;;;15.10;1.00;;;;;;4972929;28;20208;-62
2021/06/22 08:52:25;;;;;;;11.67;8.43;;;15.20;1.00;;;;;;4972877;28;20219;-63
2021/06/22 08:54:52;;;;;;;12.40;7.87;;;15.20;1.00;;;;;;4972800;28;20258;-63
2021/06/22 08:57:19;;;;;;;17.17;8.30;;;15.10;1.00;;;;;;4972920;28;20638;-63
2021/06/22 08:59:46;;;;;;;10.53;6.80;;;15.10;1.00;;;;;;4972724;28;20209;-63
2021/06/22 09:02:14;;;;;;;9.17;6.27;;;15.10;1.00;;;;;;4972922;28;20577;-62
2021/06/22 09:04:41;;;;;;;10.97;7.23;;;15.20;1.00;;;;;;4972681;28;20699;-63
2021/06/22 09:07:09;;;;;;;12.70;6.73;;;15.30;1.00;;;;;;4972410;28;20208;-64
2021/06/22 09:09:36;;;;;;;11.33;7.17;;;15.40;1.00;;;;;;4972775;28;20216;-64
2021/06/22 09:12:05;;;;;;;10.93;6.53;;;15.40;1.00;;;;;;4972636;28;20210;-63
2021/06/22 09:14:34;;;;;;;11.23;6.93;;;15.50;1.00;;;;;;4972862;28;20243;-63
2021/06/22 09:17:01;;;;;;;13.93;7.77;;;15.30;1.00;;;;;;4972636;28;20247;-63
2021/06/22 09:19:30;;;;;;;12.87;8.20;;;15.20;1.00;;;;;;4972609;28;20680;-63
2021/06/22 09:21:57;;;;;;;14.53;8.33;;;15.20;1.00;;;;;;4972610;28;20681;-64
2021/06/22 09:24:25;;;;;;;12.47;7.50;;;15.30;1.00;;;;;;4972667;28;20215;-64
2021/06/22 09:26:53;;;;;;;13.53;6.60;;;15.20;1.00;;;;;;4972524;28;20219;-63
2021/06/22 09:29:21;;;;;;;12.83;7.00;;;15.20;1.00;;;;;;4972611;28;20776;-63
2021/06/22 09:31:50;;;;;;;17.03;9.60;;;15.30;1.00;;;;;;4972472;28;20299;-62
2021/06/22 09:34:19;;;;;;;13.00;7.60;;;15.40;1.00;;;;;;4972518;28;20209;-63
2021/06/22 09:36:50;;;;;;;11.07;6.87;;;15.40;99.90;;;;;;4972260;28;20217;-64
2021/06/22 09:39:17;;;;;;;15.67;6.40;;;15.40;1.00;;;;;;4972614;28;20651;-63
2021/06/22 09:41:45;;;;;;;16.13;7.20;;;15.20;1.00;;;;;;4972555;28;20786;-64
2021/06/22 09:44:13;;;;;;;12.53;6.93;;;15.10;1.00;;;;;;4972351;28;20319;-63
2021/06/22 09:46:41;;;;;;;11.90;7.10;;;15.00;1.00;;;;;;4971949;28;20209;-66
2021/06/22 09:49:09;;;;;;;11.00;7.17;;;15.00;1.00;;;;;;4972288;28;20228;-66
2021/06/22 09:51:40;;;;;;;11.97;6.80;;;14.90;1.00;;;;;;4971675;28;20225;-64
2021/06/22 09:54:18;;;;;;;11.40;7.60;;;14.80;1.00;;;;;;4971241;28;20204;-65
2021/06/22 09:57:12;;;;;;;15.23;8.83;;;14.70;1.00;;;;;;4972263;28;20215;-65
2021/06/22 09:59:49;;;;;;;15.77;9.27;;;14.70;1.00;;;;;;4969819;28;20277;-66
2021/06/22 10:02:16;;;;;;;10.03;6.63;;;14.80;7.00;;;;;;4972733;28;20668;-66
2021/06/22 10:04:45;;;;;;;15.50;8.83;;;15.00;1.00;;;;;;4971784;28;20208;-65
2021/06/22 10:07:14;;;;;;;17.13;7.83;;;15.30;29.20;;;;;;4972332;28;20227;-66
2021/06/22 10:09:41;;;;;;;14.97;6.63;;;15.40;1.00;;;;;;4972178;28;21049;-67
2021/06/22 10:12:11;;;;;;;10.97;6.87;;;15.60;1.00;;;;;;4971889;28;20212;-67
2021/06/22 10:14:40;;;;;;;8.70;6.43;;;15.60;1.00;;;;;;4971418;28;20215;-65
2021/06/22 10:17:09;;;;;;;13.40;6.30;;;15.80;1.00;;;;;;4971845;28;20204;-65
2021/06/22 10:19:36;;;;;;;10.93;5.90;;;16.10;1.00;;;;;;4972218;28;20216;-65
2021/06/22 10:22:06;;;;;;;7.07;4.90;;;16.40;1.00;;;;;;4972627;28;20212;-62
2021/06/22 10:24:34;;;;;;;13.40;6.17;;;16.50;99.90;;;;;;4972216;28;20285;-63
2021/06/22 10:27:02;;;;;;;10.33;5.50;;;16.60;99.90;;;;;;4971360;28;20212;-62
2021/06/22 10:29:31;;;;;;;9.73;5.80;;;16.50;99.90;;;;;;4971626;28;20212;-63
2021/06/22 10:32:00;;;;;;;8.57;5.20;;;16.40;99.90;;;;;;4971548;28;20204;-64
2021/06/22 10:34:27;;;;;;;7.40;5.53;;;16.50;99.90;;;;;;4971507;28;20212;-64
2021/06/22 10:36:57;;;;;;;10.47;6.27;;;16.40;99.90;;;;;;4971229;28;20215;-65
2021/06/22 10:39:31;;;;;;;12.27;6.23;;;16.20;99.90;;;;;;4971237;28;20274;-63
2021/06/22 10:42:05;;;;;;;9.47;6.67;;;16.40;99.90;;;;;;4971324;28;20204;-64
2021/06/22 10:44:51;;;;;;;12.43;5.97;;;16.50;99.90;;;;;;4971426;28;20239;-65
2021/06/22 10:47:29;;;;;;;9.50;4.97;;;16.50;99.90;;;;;;4971303;28;20247;-66
2021/06/22 10:50:18;;;;;;;9.67;5.07;;;16.80;99.90;;;;;;4970853;28;20669;-65
2021/06/22 10:52:54;;;;;;;6.80;4.33;;;17.00;99.90;;;;;;4971885;28;20291;-70
2021/06/22 10:55:22;;;;;;;10.20;4.83;;;17.10;99.90;;;;;;4970730;28;20585;-64
2021/06/22 10:58:08;;;;;;;8.30;5.00;;;17.30;99.90;;;;;;4970895;28;20229;-63
2021/06/22 11:01:08;;;;;;;9.20;4.60;;;17.40;99.90;;;;;;4970405;28;20227;-63
2021/06/22 11:03:36;;;;;;;10.53;5.40;;;17.50;99.90;;;;;;4970861;28;20232;-63
2021/06/22 11:06:28;;;;;;;7.87;5.33;;;17.30;99.90;;;;;;4970077;28;20212;-64
2021/06/22 11:09:14;;;;;;;11.27;7.10;;;17.30;99.90;;;;;;4970756;28;20659;-64
2021/06/22 11:11:41;;;;;;;9.43;6.93;;;17.00;99.90;;;;;;4970222;28;20701;-65
2021/06/22 11:14:09;;;;;;;8.60;6.53;;;16.90;99.90;;;;;;4970848;28;20216;-63
2021/06/22 11:16:36;;;;;;;10.13;6.33;;;16.70;99.90;;;;;;4970466;28;20223;-64
2021/06/22 11:19:14;;;;;;;11.73;6.37;;;16.60;99.90;;;;;;4970271;28;20228;-63
2021/06/22 11:21:55;;;;;;;9.10;5.37;;;16.70;99.90;;;;;;4969925;28;20696;-62
2021/06/22 11:24:25;;;;;;;11.17;5.90;;;17.00;99.90;;;;;;4970689;28;20234;-62
2021/06/22 11:27:10;;;;;;;12.30;6.07;;;17.00;99.90;;;;;;4969562;28;20212;-63
2021/06/22 11:29:51;;;;;;;15.83;7.23;;;16.80;99.90;;;;;;4969837;28;20227;-63
2021/06/22 11:32:39;;;;;;;12.47;6.70;;;16.60;99.90;;;;;;4970270;28;20212;-64
2021/06/22 11:35:18;;;;;;;9.37;5.90;;;16.70;99.90;;;;;;4965701;28;20207;-64
2021/06/22 11:37:46;;;;;;;11.63;6.10;;;16.80;99.90;;;;;;4969973;28;20228;-65
2021/06/22 11:40:21;;;;;;;9.90;4.93;;;16.90;99.90;;;;;;4970033;28;20220;-65
2021/06/22 11:43:07;;;;;;;9.53;5.87;;;16.80;99.90;;;;;;4970384;28;20632;-63
2021/06/22 11:45:34;;;;;;;8.00;5.13;;;16.70;99.90;;;;;;4969981;28;20211;-65
2021/06/22 11:48:02;;;;;;;9.47;4.93;;;16.70;99.90;;;;;;4970170;28;20255;-63
2021/06/22 11:50:48;;;;;;;7.90;5.17;;;16.80;99.90;;;;;;4969684;28;20219;-65
2021/06/22 11:53:15;;;;;;;10.30;5.07;;;17.00;99.90;;;;;;4970148;28;20231;-63
2021/06/22 11:55:49;;;;;;;11.37;4.87;;;17.20;99.90;;;;;;4969730;28;20566;-63
2021/06/22 11:58:27;;;;;;;7.73;4.23;;;17.40;99.90;;;;;;4970157;28;20236;-64
2021/06/22 12:00:56;;;;;;;11.83;5.27;;;17.60;99.90;;;;;;4969453;28;20698;-64
2021/06/22 12:03:28;;;;;;;7.70;5.20;;;17.50;99.90;;;;;;4970148;28;20225;-64
2021/06/22 12:06:08;;;;;;;7.90;5.00;;;17.50;99.90;;;;;;4969733;28;20386;-64
2021/06/22 12:08:37;;;;;;;9.43;4.63;;;17.40;99.90;;;;;;4969880;28;20282;-60
2021/06/22 12:11:04;;;;;;;10.43;5.77;;;17.50;99.90;;;;;;4969461;28;20257;-64
2021/06/22 12:13:33;;;;;;;12.40;6.63;;;17.60;99.90;;;;;;4969587;28;20219;-64
2021/06/22 12:16:14;;;;;;;10.50;6.23;;;17.50;99.90;;;;;;4969764;28;20586;-64
2021/06/22 12:18:41;;;;;;;10.90;6.13;;;17.60;99.90;;;;;;4968515;28;20232;-63
2021/06/22 12:21:10;;;;;;;11.40;6.33;;;17.50;99.90;;;;;;4969527;28;20722;-64
2021/06/22 12:23:40;;;;;;;9.90;6.87;;;17.60;99.90;;;;;;4969378;28;20231;-65
2021/06/22 12:26:07;;;;;;;12.10;6.37;;;17.70;99.90;;;;;;4969683;28;20224;-64
2021/06/22 12:28:35;;;;;;;8.80;6.43;;;17.60;99.90;;;;;;4969495;28;20243;-63
2021/06/22 12:31:04;;;;;;;11.93;6.27;;;17.70;99.90;;;;;;4969447;28;20211;-65
2021/06/22 12:33:36;;;;;;;10.57;4.63;;;17.70;99.90;;;;;;4969478;28;20215;-64
2021/06/22 12:36:04;;;;;;;9.50;5.40;;;17.60;99.90;;;;;;4968944;28;20772;-64
2021/06/22 12:38:33;;;;;;;11.77;6.57;;;17.40;99.90;;;;;;4969500;28;20228;-64
2021/06/22 12:41:01;;;;;;;11.17;5.97;;;17.30;99.90;;;;;;4969325;28;20205;-64
2021/06/22 12:43:42;;;;;;;9.77;5.80;;;17.20;99.90;;;;;;4969385;28;20256;-64
2021/06/22 12:46:10;;;;;;;9.17;5.77;;;17.10;99.90;;;;;;4968975;28;20209;-64
2021/06/22 12:48:37;;;;;;;9.87;6.00;;;17.10;99.90;;;;;;4969570;28;20266;-65
2021/06/22 12:51:04;;;;;;;9.90;5.50;;;17.20;99.90;;;;;;4968908;28;20219;-65